Time;durP1;ratioP1;P1;durP2;ratioP2;P2;SDS_P1;SDS_P2;PMS_P1;PMS_P2;Temp;Humidity;BMP_temperature;BMP_pressure;BME280_temperature;BME280_humidity;BME280_pressure;Samples;Min_cycle;Max_cycle;Signal;HPM_P1;HPM_P2
2022/04/04 00:02:14;;;;;;;32.75;18.08;;;;;;;;;;4920637;29;20043;-80
2022/04/04 00:04:40;;;;;;;37.17;18.27;;;;;;;;;;4937461;29;20059;-79
2022/04/04 00:07:06;;;;;;;36.90;18.27;;;;;;;;;;4920300;29;20114;-79
2022/04/04 00:09:32;;;;;;;35.55;17.23;;;;;;;;;;4920529;29;20031;-79
2022/04/04 00:11:57;;;;;;;33.55;17.05;;;;;;;;;;4937336;29;20070;-80
2022/04/04 00:14:23;;;;;;;29.85;16.27;;;;;;;;;;4920295;29;20019;-80
2022/04/04 00:16:49;;;;;;;31.80;16.02;;;;;;;;;;4937603;29;20457;-79
2022/04/04 00:19:15;;;;;;;39.38;19.35;;;;;;;;;;4937614;29;20024;-79
2022/04/04 00:21:41;;;;;;;38.47;19.20;;;;;;;;;;4937158;29;20128;-78
2022/04/04 00:24:07;;;;;;;25.42;13.00;;;;;;;;;;4900893;29;20108;-78
2022/04/04 00:26:32;;;;;;;29.10;15.25;;;;;;;;;;4920306;29;20047;-78
2022/04/04 00:28:58;;;;;;;26.27;13.18;;;;;;;;;;4920108;29;20035;-78
2022/04/04 00:31:23;;;;;;;27.98;13.95;;;;;;;;;;4919924;29;20503;-79
2022/04/04 00:33:50;;;;;;;35.47;16.40;;;;;;;;;;4920376;29;20035;-79
2022/04/04 00:36:16;;;;;;;30.80;15.98;;;;;;;;;;4937202;29;20484;-77
2022/04/04 00:38:42;;;;;;;34.03;17.58;;;;;;;;;;4936931;29;20639;-77
2022/04/04 00:41:12;;;;;;;34.97;17.95;;;;;;;;;;4920376;29;20031;-77
2022/04/04 00:43:37;;;;;;;35.85;17.67;;;;;;;;;;4936978;29;20023;-78
2022/04/04 00:46:03;;;;;;;37.10;19.50;;;;;;;;;;4937202;29;20039;-78
2022/04/04 00:48:29;;;;;;;39.15;20.10;;;;;;;;;;4936731;29;20595;-77
2022/04/04 00:50:55;;;;;;;35.05;18.50;;;;;;;;;;4919803;29;20035;-77
2022/04/04 00:53:22;;;;;;;37.28;18.27;;;;;;;;;;4937035;29;20019;-77
2022/04/04 00:55:48;;;;;;;36.25;17.98;;;;;;;;;;4919374;29;20027;-78
2022/04/04 00:58:17;;;;;;;35.03;17.60;;;;;;;;;;4937115;29;20416;-77
2022/04/04 01:00:45;;;;;;;39.58;19.27;;;;;;;;;;4919296;29;20067;-77
2022/04/04 01:03:11;;;;;;;37.53;18.45;;;;;;;;;;4936487;29;20038;-77
2022/04/04 01:05:39;;;;;;;35.97;18.25;;;;;;;;;;4936496;29;20036;-76
2022/04/04 01:08:04;;;;;;;30.45;16.83;;;;;;;;;;4936703;29;20070;-72
2022/04/04 01:10:30;;;;;;;33.92;17.58;;;;;;;;;;4936235;29;20475;-72
2022/04/04 01:12:55;;;;;;;33.25;17.00;;;;;;;;;;4936285;29;20026;-72
2022/04/04 01:15:23;;;;;;;35.00;17.55;;;;;;;;;;4919373;29;20400;-70
2022/04/04 01:17:50;;;;;;;33.78;17.38;;;;;;;;;;4936106;29;20026;-75
2022/04/04 01:20:16;;;;;;;34.47;16.63;;;;;;;;;;4936748;29;20024;-72
2022/04/04 01:22:46;;;;;;;33.97;16.35;;;;;;;;;;4903615;29;20079;-72
2022/04/04 01:25:12;;;;;;;32.60;16.20;;;;;;;;;;4919133;29;20043;-72
2022/04/04 01:27:39;;;;;;;30.45;16.13;;;;;;;;;;4936359;29;20050;-75
2022/04/04 01:30:06;;;;;;;30.55;16.05;;;;;;;;;;4936133;29;20036;-72
2022/04/04 01:32:34;;;;;;;31.42;15.85;;;;;;;;;;4935973;29;20016;-72
2022/04/04 01:34:59;;;;;;;32.10;16.05;;;;;;;;;;4919323;29;20035;-72
2022/04/04 01:37:25;;;;;;;29.75;15.02;;;;;;;;;;4936078;29;20050;-72
2022/04/04 01:39:51;;;;;;;29.50;15.23;;;;;;;;;;4918476;29;20484;-72
2022/04/04 01:42:16;;;;;;;30.25;14.75;;;;;;;;;;4903341;29;20459;-72
2022/04/04 01:44:42;;;;;;;25.73;14.52;;;;;;;;;;4936109;29;20095;-72
2022/04/04 01:47:07;;;;;;;21.90;12.52;;;;;;;;;;4936355;29;20020;-72
2022/04/04 01:49:33;;;;;;;25.05;13.68;;;;;;;;;;4919040;29;20460;-72
2022/04/04 01:51:58;;;;;;;23.42;12.68;;;;;;;;;;4936135;29;20019;-72
2022/04/04 01:54:24;;;;;;;21.10;11.23;;;;;;;;;;4918548;29;20039;-72
2022/04/04 01:56:49;;;;;;;22.30;12.18;;;;;;;;;;4903437;29;20020;-72
2022/04/04 01:59:15;;;;;;;21.02;12.25;;;;;;;;;;4936307;29;20038;-72
2022/04/04 02:01:41;;;;;;;21.15;10.68;;;;;;;;;;4935996;29;20056;-72
2022/04/04 02:04:08;;;;;;;22.83;11.57;;;;;;;;;;4936037;29;20024;-72
2022/04/04 02:06:34;;;;;;;21.88;12.55;;;;;;;;;;4918728;29;20047;-72
2022/04/04 02:09:03;;;;;;;22.60;12.38;;;;;;;;;;4903400;29;20464;-72
2022/04/04 02:11:29;;;;;;;19.30;11.45;;;;;;;;;;4918366;29;20038;-72
2022/04/04 02:13:55;;;;;;;23.98;13.13;;;;;;;;;;4935867;29;20028;-72
2022/04/04 02:16:20;;;;;;;22.13;12.30;;;;;;;;;;4935897;29;20074;-72
2022/04/04 02:18:46;;;;;;;22.17;12.30;;;;;;;;;;4935821;29;20039;-72
2022/04/04 02:21:11;;;;;;;23.58;12.45;;;;;;;;;;4918940;29;20031;-72
2022/04/04 02:23:37;;;;;;;21.77;12.32;;;;;;;;;;4935663;29;20535;-72
2022/04/04 02:26:03;;;;;;;23.75;11.65;;;;;;;;;;4935628;29;20043;-72
2022/04/04 02:28:30;;;;;;;21.55;12.60;;;;;;;;;;4918900;29;20497;-72
2022/04/04 02:30:55;;;;;;;24.60;12.80;;;;;;;;;;4919176;29;20031;-72
2022/04/04 02:33:22;;;;;;;21.65;13.02;;;;;;;;;;4919160;29;20036;-72
2022/04/04 02:35:50;;;;;;;20.25;12.55;;;;;;;;;;4935744;29;20114;-72
2022/04/04 02:38:16;;;;;;;23.67;13.25;;;;;;;;;;4935531;29;20023;-72
2022/04/04 02:40:42;;;;;;;20.13;12.38;;;;;;;;;;4935658;29;20024;-72
2022/04/04 02:43:08;;;;;;;20.70;12.20;;;;;;;;;;4918670;29;20083;-72
2022/04/04 02:45:34;;;;;;;19.40;11.32;;;;;;;;;;4935626;29;20111;-72
2022/04/04 02:48:00;;;;;;;21.55;12.18;;;;;;;;;;4902824;29;20052;-72
2022/04/04 02:50:26;;;;;;;22.70;13.25;;;;;;;;;;4902760;29;20032;-72
2022/04/04 02:52:52;;;;;;;24.15;13.05;;;;;;;;;;4938485;29;20027;-72
2022/04/04 02:58:02;;;;;;;22.30;12.65;;;;;;;;;;4922344;29;20054;-72
2022/04/04 03:00:28;;;;;;;18.98;11.77;;;;;;;;;;4938996;29;20044;-72
2022/04/04 03:02:54;;;;;;;20.20;12.73;;;;;;;;;;4921892;29;20514;-71
2022/04/04 03:05:20;;;;;;;23.73;12.85;;;;;;;;;;4938900;29;20118;-72
2022/04/04 03:07:46;;;;;;;22.98;11.93;;;;;;;;;;4938734;29;20063;-72
2022/04/04 03:10:12;;;;;;;22.60;12.10;;;;;;;;;;4938635;29;20016;-70
2022/04/04 03:12:41;;;;;;;20.45;12.20;;;;;;;;;;4938872;29;20027;-71
2022/04/04 03:15:08;;;;;;;21.20;12.83;;;;;;;;;;4921709;29;20361;-70
2022/04/04 03:17:34;;;;;;;20.15;12.02;;;;;;;;;;4938382;29;20118;-72
2022/04/04 03:20:00;;;;;;;19.52;11.98;;;;;;;;;;4921506;29;20114;-72
2022/04/04 03:22:25;;;;;;;18.30;12.02;;;;;;;;;;4938383;29;20032;-72
2022/04/04 03:24:52;;;;;;;17.23;11.65;;;;;;;;;;4901933;29;20412;-72
2022/04/04 03:27:18;;;;;;;17.25;11.30;;;;;;;;;;4902575;29;20027;-72
2022/04/04 03:29:44;;;;;;;18.52;11.73;;;;;;;;;;4919686;29;20456;-72
2022/04/04 03:32:10;;;;;;;20.40;11.63;;;;;;;;;;4919078;29;20039;-72
2022/04/04 03:34:35;;;;;;;23.05;11.77;;;;;;;;;;4918245;29;20020;-72
2022/04/04 03:37:01;;;;;;;20.67;11.43;;;;;;;;;;4919415;29;20040;-72
2022/04/04 03:39:26;;;;;;;16.13;10.73;;;;;;;;;;4918118;29;20030;-72
2022/04/04 03:41:54;;;;;;;19.27;11.55;;;;;;;;;;4919215;29;20035;-73
2022/04/04 03:44:19;;;;;;;17.70;11.27;;;;;;;;;;4918687;29;20016;-73
2022/04/04 03:46:45;;;;;;;19.55;11.68;;;;;;;;;;4902053;29;20510;-71
2022/04/04 03:49:13;;;;;;;15.98;10.45;;;;;;;;;;4919054;29;20032;-72
2022/04/04 03:51:39;;;;;;;20.27;10.85;;;;;;;;;;4918729;29;20125;-72
2022/04/04 03:54:07;;;;;;;16.40;9.98;;;;;;;;;;4917785;29;20034;-72
2022/04/04 03:56:33;;;;;;;16.98;10.00;;;;;;;;;;4917472;29;20043;-72
2022/04/04 03:58:58;;;;;;;14.50;10.07;;;;;;;;;;4918775;29;20380;-72
2022/04/04 04:01:27;;;;;;;15.90;9.52;;;;;;;;;;4918889;29;20036;-72
2022/04/04 04:03:52;;;;;;;14.48;9.73;;;;;;;;;;4918357;29;20016;-73
2022/04/04 04:06:18;;;;;;;13.40;9.45;;;;;;;;;;4917576;29;20477;-72
2022/04/04 04:08:45;;;;;;;12.90;8.90;;;;;;;;;;4918752;29;20120;-72
2022/04/04 04:11:11;;;;;;;14.07;9.48;;;;;;;;;;4918485;29;20051;-72
2022/04/04 04:13:37;;;;;;;14.63;9.02;;;;;;;;;;4918349;29;20054;-72
2022/04/04 04:16:03;;;;;;;13.07;8.18;;;;;;;;;;4918373;29;20396;-72
2022/04/04 04:18:33;;;;;;;14.43;8.75;;;;;;;;;;4916974;29;20181;-72
2022/04/04 04:20:59;;;;;;;12.07;8.43;;;;;;;;;;4917291;29;20123;-72
2022/04/04 04:23:24;;;;;;;12.70;8.32;;;;;;;;;;4917378;29;20119;-72
2022/04/04 04:25:50;;;;;;;13.30;8.82;;;;;;;;;;4931417;29;20044;-72
2022/04/04 04:28:16;;;;;;;12.63;8.40;;;;;;;;;;4937472;29;20028;-72
2022/04/04 04:30:41;;;;;;;14.98;9.10;;;;;;;;;;4903959;29;20055;-72
2022/04/04 04:33:07;;;;;;;12.77;9.57;;;;;;;;;;4919927;29;20414;-72
2022/04/04 04:39:08;;;;;;;12.40;9.20;;;;;;;;;;4937730;29;20051;-72
2022/04/04 04:45:09;;;;;;;15.52;10.38;;;;;;;;;;4937422;29;20075;-72
2022/04/04 04:51:10;;;;;;;13.85;8.70;;;;;;;;;;4937061;29;20176;-73
2022/04/04 04:57:11;;;;;;;12.07;7.90;;;;;;;;;;4936984;29;20067;-71
2022/04/04 05:13:38;;;;;;;8.95;6.18;;;;;;;;;;4935970;29;20384;-73
2022/04/04 05:16:08;;;;;;;9.40;5.53;;;;;;;;;;4935834;29;20024;-70
2022/04/04 05:18:34;;;;;;;;;;;;;;;;;;4936632;29;20097;-71
2022/04/04 05:20:59;;;;;;;7.40;5.45;;;;;;;;;;4936003;29;19907;-71
2022/04/04 05:23:25;;;;;;;9.45;7.50;;;;;;;;;;4936108;29;20449;-71
2022/04/04 05:25:50;;;;;;;10.60;7.10;;;;;;;;;;4918729;29;20047;-70
2022/04/04 05:28:16;;;;;;;10.98;6.78;;;;;;;;;;4919101;29;20040;-70
2022/04/04 05:30:41;;;;;;;6.93;5.07;;;;;;;;;;4935980;29;20067;-71
2022/04/04 05:33:09;;;;;;;10.30;6.95;;;;;;;;;;4935975;29;20126;-69
2022/04/04 05:35:35;;;;;;;6.82;5.65;;;;;;;;;;4918786;29;20391;-70
2022/04/04 05:38:00;;;;;;;7.78;6.18;;;;;;;;;;4918866;29;20035;-71
2022/04/04 05:40:26;;;;;;;10.43;6.70;;;;;;;;;;4902964;29;20019;-71
2022/04/04 05:42:52;;;;;;;7.75;5.57;;;;;;;;;;4935903;29;20035;-68
2022/04/04 05:45:18;;;;;;;7.38;5.07;;;;;;;;;;4935755;29;20383;-71
2022/04/04 05:47:44;;;;;;;8.65;6.18;;;;;;;;;;4935776;29;20083;-70
2022/04/04 05:50:10;;;;;;;5.80;4.65;;;;;;;;;;4935721;29;20075;-71
2022/04/04 05:52:36;;;;;;;6.60;5.32;;;;;;;;;;4902918;29;20091;-72
2022/04/04 05:55:05;;;;;;;7.10;5.57;;;;;;;;;;4935599;29;20012;-72
2022/04/04 05:57:35;;;;;;;5.90;5.05;;;;;;;;;;4918790;29;20056;-71
2022/04/04 06:00:02;;;;;;;;;;;;;;;;;;4936026;29;20110;-71
2022/04/04 06:02:37;;;;;;;7.45;4.65;;;;;;;;;;4935630;29;20260;-71
2022/04/04 06:05:04;;;;;;;7.18;5.78;;;;;;;;;;4918502;29;20064;-70
2022/04/04 06:07:29;;;;;;;8.77;6.13;;;;;;;;;;4918549;29;20031;-71
2022/04/04 06:09:55;;;;;;;8.32;5.57;;;;;;;;;;4935662;29;20042;-71
2022/04/04 06:12:20;;;;;;;6.10;5.35;;;;;;;;;;4918519;29;20058;-72
2022/04/04 06:14:46;;;;;;;7.50;5.35;;;;;;;;;;4918611;29;20027;-71
2022/04/04 06:17:11;;;;;;;7.43;5.97;;;;;;;;;;4918521;29;20023;-72
2022/04/04 06:19:37;;;;;;;7.05;5.72;;;;;;;;;;4935498;29;20522;-72
2022/04/04 06:22:04;;;;;;;6.18;4.82;;;;;;;;;;4918554;29;20118;-73
2022/04/04 06:24:31;;;;;;;6.38;5.03;;;;;;;;;;4917926;29;20052;-73
2022/04/04 06:27:00;;;;;;;5.43;4.10;;;;;;;;;;4938753;29;20118;-70
2022/04/04 06:29:26;;;;;;;3.80;2.72;;;;;;;;;;4939097;29;20369;-65
2022/04/04 06:31:51;;;;;;;3.20;2.42;;;;;;;;;;4939213;29;20031;-64
2022/04/04 06:34:20;;;;;;;3.80;2.78;;;;;;;;;;4939077;29;20066;-64
2022/04/04 06:36:46;;;;;;;5.40;4.53;;;;;;;;;;4938936;29;20035;-62
2022/04/04 06:39:12;;;;;;;5.53;4.72;;;;;;;;;;4921885;29;20035;-74
2022/04/04 06:41:37;;;;;;;2.85;2.60;;;;;;;;;;4939037;29;20024;-74
2022/04/04 06:44:04;;;;;;;6.40;4.20;;;;;;;;;;4938949;29;20027;-74
2022/04/04 06:46:29;;;;;;;6.35;4.72;;;;;;;;;;4921758;29;20020;-73
2022/04/04 06:48:55;;;;;;;7.55;5.53;;;;;;;;;;4938816;29;20115;-73
2022/04/04 06:51:20;;;;;;;5.82;4.65;;;;;;;;;;4938729;29;20016;-73
2022/04/04 06:53:46;;;;;;;6.45;4.55;;;;;;;;;;4921721;29;20043;-73
2022/04/04 06:56:12;;;;;;;5.40;4.78;;;;;;;;;;4938653;29;20035;-73
2022/04/04 06:58:38;;;;;;;6.40;4.78;;;;;;;;;;4921782;29;20393;-73
2022/04/04 07:01:04;;;;;;;5.25;4.13;;;;;;;;;;4921968;29;20026;-73
2022/04/04 07:03:29;;;;;;;5.93;4.60;;;;;;;;;;4938942;29;20377;-74
2022/04/04 07:05:55;;;;;;;4.93;4.43;;;;;;;;;;4921099;29;20027;-74
2022/04/04 07:08:21;;;;;;;5.05;3.50;;;;;;;;;;4938527;29;20020;-74
2022/04/04 07:10:47;;;;;;;4.57;3.83;;;;;;;;;;4938458;29;20016;-73
2022/04/04 07:13:12;;;;;;;6.07;4.55;;;;;;;;;;4921279;29;20058;-73
2022/04/04 07:15:39;;;;;;;4.05;3.67;;;;;;;;;;4938236;29;20468;-73
2022/04/04 07:18:04;;;;;;;4.88;3.53;;;;;;;;;;4938132;29;20380;-73
2022/04/04 07:20:30;;;;;;;6.38;4.32;;;;;;;;;;4921292;29;20024;-73
2022/04/04 07:22:55;;;;;;;6.22;4.60;;;;;;;;;;4938174;29;20028;-72
2022/04/04 07:25:24;;;;;;;5.43;4.63;;;;;;;;;;4937617;29;20396;-72
2022/04/04 07:27:49;;;;;;;5.72;4.57;;;;;;;;;;4938053;29;20035;-72
2022/04/04 07:30:17;;;;;;;5.30;4.72;;;;;;;;;;4937892;29;20436;-72
2022/04/04 07:32:43;;;;;;;7.53;5.22;;;;;;;;;;4938028;29;20496;-72
2022/04/04 07:35:12;;;;;;;4.25;3.75;;;;;;;;;;4937863;29;20038;-72
2022/04/04 07:37:40;;;;;;;6.55;4.18;;;;;;;;;;4937083;29;20031;-73
2022/04/04 07:40:06;;;;;;;9.38;5.57;;;;;;;;;;4937783;29;20020;-64
2022/04/04 07:42:32;;;;;;;6.70;4.72;;;;;;;;;;4920680;29;20487;-64
2022/04/04 07:44:58;;;;;;;5.70;4.88;;;;;;;;;;4920861;29;20036;-64
2022/04/04 07:47:23;;;;;;;4.30;3.92;;;;;;;;;;4920757;29;20040;-64
2022/04/04 07:49:49;;;;;;;6.82;4.90;;;;;;;;;;4937616;29;20083;-63
2022/04/04 07:52:15;;;;;;;5.20;3.78;;;;;;;;;;4937577;29;20087;-63
2022/04/04 07:54:40;;;;;;;5.63;4.15;;;;;;;;;;4938058;29;20031;-63
2022/04/04 07:57:06;;;;;;;4.10;3.65;;;;;;;;;;4937505;29;20380;-63
2022/04/04 07:59:31;;;;;;;5.68;5.10;;;;;;;;;;4937451;29;20452;-63
2022/04/04 08:01:57;;;;;;;7.60;4.72;;;;;;;;;;4937385;29;20464;-63
2022/04/04 08:04:22;;;;;;;5.72;4.15;;;;;;;;;;4920263;29;20020;-63
2022/04/04 08:06:48;;;;;;;6.78;4.70;;;;;;;;;;4937416;29;20039;-62
2022/04/04 08:09:14;;;;;;;6.38;4.93;;;;;;;;;;4937317;29;20487;-63
2022/04/04 08:11:40;;;;;;;5.63;4.95;;;;;;;;;;4937180;29;20071;-62
2022/04/04 08:14:08;;;;;;;7.32;5.07;;;;;;;;;;4937301;29;20028;-63
2022/04/04 08:16:35;;;;;;;6.90;5.30;;;;;;;;;;4937243;29;20032;-62
2022/04/04 08:19:01;;;;;;;7.47;5.00;;;;;;;;;;4937120;29;20023;-62
2022/04/04 08:21:26;;;;;;;7.00;5.75;;;;;;;;;;4937167;29;20024;-62
2022/04/04 08:23:53;;;;;;;7.55;5.97;;;;;;;;;;4937070;29;20027;-62
2022/04/04 08:26:19;;;;;;;7.65;5.97;;;;;;;;;;4936932;29;20122;-62
2022/04/04 08:28:45;;;;;;;7.43;5.80;;;;;;;;;;4936904;29;20467;-63
2022/04/04 08:31:11;;;;;;;10.75;7.75;;;;;;;;;;4936910;29;20028;-62
2022/04/04 08:33:37;;;;;;;9.65;7.50;;;;;;;;;;4919804;29;20027;-62
2022/04/04 08:36:04;;;;;;;10.93;7.68;;;;;;;;;;4936736;29;20103;-63
2022/04/04 08:38:29;;;;;;;7.05;5.13;;;;;;;;;;4936750;29;20035;-62
2022/04/04 08:40:58;;;;;;;6.80;4.85;;;;;;;;;;4919765;29;20032;-63
2022/04/04 08:43:24;;;;;;;7.35;5.15;;;;;;;;;;4936647;29;20026;-63
2022/04/04 08:45:50;;;;;;;6.90;5.00;;;;;;;;;;4936634;29;20034;-63
2022/04/04 08:48:16;;;;;;;5.75;4.78;;;;;;;;;;4919020;29;20016;-62
2022/04/04 08:50:42;;;;;;;6.05;4.63;;;;;;;;;;4936766;29;20499;-63
2022/04/04 08:53:08;;;;;;;7.72;4.60;;;;;;;;;;4919566;29;20031;-63
2022/04/04 08:55:35;;;;;;;7.28;4.72;;;;;;;;;;4936449;29;20028;-62
2022/04/04 08:58:00;;;;;;;4.38;3.00;;;;;;;;;;4936293;29;20476;-62
2022/04/04 09:00:26;;;;;;;7.05;4.57;;;;;;;;;;4936346;29;20036;-63
2022/04/04 09:02:56;;;;;;;6.38;5.03;;;;;;;;;;4903596;29;20034;-63
2022/04/04 09:05:22;;;;;;;4.80;4.10;;;;;;;;;;4936427;29;20387;-63
2022/04/04 09:08:05;;;;;;;5.40;4.38;;;;;;;;;;4919263;29;20358;-63
2022/04/04 09:10:34;;;;;;;6.05;5.00;;;;;;;;;;4919240;29;20032;-64
2022/04/04 09:13:12;;;;;;;5.85;5.00;;;;;;;;;;4936039;29;20024;-64
2022/04/04 09:15:50;;;;;;;8.07;5.18;;;;;;;;;;4936088;29;20036;-64
2022/04/04 09:18:16;;;;;;;8.30;4.72;;;;;;;;;;4918931;29;20040;-64
2022/04/04 09:20:48;;;;;;;7.03;5.35;;;;;;;;;;4936017;29;20028;-64
2022/04/04 09:23:14;;;;;;;6.28;4.82;;;;;;;;;;4936069;29;20038;-64
2022/04/04 09:25:40;;;;;;;5.63;4.18;;;;;;;;;;4935503;29;20032;-64
2022/04/04 09:28:17;;;;;;;6.55;4.50;;;;;;;;;;4935910;29;20056;-64
2022/04/04 09:30:43;;;;;;;4.25;3.20;;;;;;;;;;4936024;29;20114;-64
2022/04/04 09:33:33;;;;;;;4.63;2.90;;;;;;;;;;4935790;29;20028;-64
2022/04/04 09:35:58;;;;;;;4.00;3.65;;;;;;;;;;4935939;29;20028;-64
2022/04/04 09:38:24;;;;;;;6.28;4.28;;;;;;;;;;4903137;29;20507;-64
2022/04/04 09:40:55;;;;;;;6.40;3.97;;;;;;;;;;4935942;29;20391;-64
2022/04/04 09:43:21;;;;;;;7.22;3.90;;;;;;;;;;4935911;29;20027;-64
2022/04/04 09:45:47;;;;;;;4.75;3.55;;;;;;;;;;4935853;29;20022;-64
2022/04/04 09:48:13;;;;;;;5.22;3.67;;;;;;;;;;4935870;29;20036;-64
2022/04/04 09:50:45;;;;;;;4.40;3.90;;;;;;;;;;4935869;29;20054;-63
2022/04/04 09:53:16;;;;;;;5.65;3.70;;;;;;;;;;4918665;29;20032;-66
2022/04/04 09:55:45;;;;;;;7.60;4.97;;;;;;;;;;4918651;29;20039;-64
2022/04/04 09:58:15;;;;;;;4.32;3.72;;;;;;;;;;4935105;28;20079;-64
2022/04/04 10:00:42;;;;;;;4.35;3.92;;;;;;;;;;4938880;29;20562;-64
2022/04/04 10:03:12;;;;;;;2.92;2.67;;;;;;;;;;4958393;28;20435;-64
2022/04/04 10:05:42;;;;;;;3.35;3.03;;;;;;;;;;4958584;29;20042;-64
2022/04/04 10:08:08;;;;;;;4.30;3.53;;;;;;;;;;4958571;29;20035;-64
2022/04/04 10:10:34;;;;;;;3.70;3.33;;;;;;;;;;4958561;29;20023;-63
2022/04/04 10:12:59;;;;;;;4.40;3.08;;;;;;;;;;4958660;29;20494;-64
2022/04/04 10:15:26;;;;;;;4.60;4.15;;;;;;;;;;4958367;29;20028;-64
2022/04/04 10:17:53;;;;;;;3.78;3.38;;;;;;;;;;4958628;29;20065;-64
2022/04/04 10:20:19;;;;;;;4.53;2.85;;;;;;;;;;4941410;29;20023;-64
2022/04/04 10:22:45;;;;;;;4.25;3.28;;;;;;;;;;4958588;29;20037;-64
2022/04/04 10:25:13;;;;;;;3.90;2.75;;;;;;;;;;4941183;29;20415;-64
2022/04/04 10:27:39;;;;;;;5.22;3.80;;;;;;;;;;4958372;29;20538;-64
2022/04/04 10:30:06;;;;;;;3.17;2.22;;;;;;;;;;4941315;29;20127;-64
2022/04/04 10:32:32;;;;;;;5.00;3.47;;;;;;;;;;4958368;29;20067;-64
2022/04/04 10:34:58;;;;;;;3.72;3.35;;;;;;;;;;4958037;29;20125;-64
2022/04/04 10:37:29;;;;;;;3.78;3.22;;;;;;;;;;4941090;29;20114;-64
2022/04/04 10:39:55;;;;;;;3.17;2.88;;;;;;;;;;4940932;29;20051;-64
2022/04/04 10:42:31;;;;;;;5.68;4.15;;;;;;;;;;4958272;29;20089;-64
2022/04/04 10:44:58;;;;;;;3.33;2.92;;;;;;;;;;4958257;29;20034;-64
2022/04/04 10:47:26;;;;;;;4.13;3.40;;;;;;;;;;4940976;29;20027;-64
2022/04/04 10:49:54;;;;;;;5.28;3.35;;;;;;;;;;4958073;29;20086;-64
2022/04/04 10:52:22;;;;;;;2.75;2.55;;;;;;;;;;4957992;29;20019;-64
2022/04/04 10:54:48;;;;;;;2.30;2.10;;;;;;;;;;4957387;29;20475;-64
2022/04/04 10:57:17;;;;;;;3.65;2.75;;;;;;;;;;4958169;29;20019;-64
2022/04/04 10:59:46;;;;;;;3.17;2.83;;;;;;;;;;4957808;28;20031;-65
2022/04/04 11:02:13;;;;;;;2.95;2.75;;;;;;;;;;4957889;29;20108;-65
2022/04/04 11:07:38;;;;;;;3.20;2.58;;;;;;;;;;4957890;29;20071;-65
2022/04/04 11:07:38;;;;;;;2.17;2.08;;;;;;;;;;4957752;29;20035;-65
2022/04/04 11:10:08;;;;;;;3.20;2.50;;;;;;;;;;4940458;29;20487;-65
2022/04/04 11:12:52;;;;;;;8.25;4.43;;;;;;;;;;4923444;29;20031;-64
2022/04/04 11:15:17;;;;;;;3.20;2.30;;;;;;;;;;4957482;29;20038;-64
2022/04/04 11:17:57;;;;;;;4.50;3.53;;;;;;;;;;4957302;29;20027;-64
2022/04/04 11:20:31;;;;;;;3.80;3.42;;;;;;;;;;4957500;29;20034;-64
2022/04/04 11:22:57;;;;;;;3.38;3.08;;;;;;;;;;4957606;29;20027;-64
2022/04/04 11:25:27;;;;;;;3.55;3.10;;;;;;;;;;4956900;29;20043;-65
2022/04/04 11:27:52;;;;;;;2.92;2.53;;;;;;;;;;4957377;29;20035;-65
2022/04/04 11:30:19;;;;;;;3.90;2.25;;;;;;;;;;4957367;29;20030;-65
2022/04/04 11:32:46;;;;;;;4.13;2.97;;;;;;;;;;4940176;29;20023;-64
2022/04/04 11:35:22;;;;;;;3.08;2.83;;;;;;;;;;4956999;29;20046;-65
2022/04/04 11:37:48;;;;;;;2.97;2.78;;;;;;;;;;4940196;29;20035;-64
2022/04/04 11:40:25;;;;;;;3.55;2.85;;;;;;;;;;4940090;29;20494;-64
2022/04/04 11:42:51;;;;;;;3.88;3.53;;;;;;;;;;4957208;29;20027;-64
2022/04/04 11:45:18;;;;;;;3.38;2.90;;;;;;;;;;4957152;29;20103;-64
2022/04/04 11:47:54;;;;;;;2.70;2.50;;;;;;;;;;4957066;29;20042;-64
2022/04/04 11:50:23;;;;;;;3.80;2.75;;;;;;;;;;4956935;29;20062;-64
2022/04/04 11:52:56;;;;;;;0.82;0.82;;;;;;;;;;4956962;29;20090;-64
2022/04/04 11:55:23;;;;;;;3.33;2.80;;;;;;;;;;4956419;29;20039;-64
2022/04/04 11:57:49;;;;;;;3.85;3.05;;;;;;;;;;4956750;29;20042;-64
2022/04/04 12:00:26;;;;;;;3.95;3.25;;;;;;;;;;4923860;29;20031;-64
2022/04/04 12:02:52;;;;;;;3.35;2.85;;;;;;;;;;4956571;29;20038;-63
2022/04/04 12:05:22;;;;;;;4.60;2.75;;;;;;;;;;4957058;29;20391;-64
2022/04/04 12:07:49;;;;;;;1.65;1.55;;;;;;;;;;4956711;29;20027;-64
2022/04/04 12:10:17;;;;;;;3.38;2.47;;;;;;;;;;4939484;29;20030;-64
2022/04/04 12:12:43;;;;;;;2.83;2.63;;;;;;;;;;4956857;29;20042;-64
2022/04/04 12:15:09;;;;;;;2.35;2.15;;;;;;;;;;4956847;29;20023;-64
2022/04/04 12:17:35;;;;;;;1.98;1.83;;;;;;;;;;4956811;29;20029;-63
2022/04/04 12:20:08;;;;;;;3.47;3.17;;;;;;;;;;4956610;29;20357;-64
2022/04/04 12:25:20;;;;;;;2.67;2.35;;;;;;;;;;4956301;29;20075;-63
2022/04/04 12:27:59;;;;;;;2.83;2.60;;;;;;;;;;4956341;29;20035;-63
2022/04/04 12:30:29;;;;;;;2.50;2.05;;;;;;;;;;4956333;29;20039;-63
2022/04/04 12:33:05;;;;;;;1.10;0.95;;;;;;;;;;4956348;29;20491;-74
2022/04/04 12:35:31;;;;;;;5.35;3.72;;;;;;;;;;4955926;29;20035;-74
2022/04/04 12:37:59;;;;;;;3.28;3.03;;;;;;;;;;4955990;29;20034;-74
2022/04/04 12:40:25;;;;;;;1.95;1.80;;;;;;;;;;4956003;29;20024;-74
2022/04/04 12:42:52;;;;;;;2.05;1.52;;;;;;;;;;4955744;29;20574;-74
2022/04/04 12:45:18;;;;;;;0.70;0.65;;;;;;;;;;4938688;29;20038;-74
2022/04/04 12:47:57;;;;;;;0.77;0.77;;;;;;;;;;4955554;28;20110;-74
2022/04/04 12:50:24;;;;;;;2.30;1.30;;;;;;;;;;4956077;29;20051;-74
2022/04/04 12:52:56;;;;;;;2.17;1.98;;;;;;;;;;4955393;29;20031;-74
2022/04/04 12:55:22;;;;;;;2.70;2.50;;;;;;;;;;4955433;29;20403;-73
2022/04/04 12:57:47;;;;;;;4.90;3.92;;;;;;;;;;4955486;29;20019;-74
2022/04/04 13:00:24;;;;;;;2.20;2.10;;;;;;;;;;4938327;29;20207;-74
2022/04/04 13:02:49;;;;;;;2.42;1.45;;;;;;;;;;4955589;29;20495;-74
2022/04/04 13:05:15;;;;;;;3.30;3.00;;;;;;;;;;4955783;29;20019;-74
2022/04/04 13:07:54;;;;;;;2.45;1.95;;;;;;;;;;4955704;29;20402;-74
2022/04/04 13:10:24;;;;;;;2.83;2.30;;;;;;;;;;4955718;29;20027;-74
2022/04/04 13:12:49;;;;;;;1.15;1.05;;;;;;;;;;4955450;29;20475;-74
2022/04/04 13:15:34;;;;;;;2.00;1.90;;;;;;;;;;4955441;29;20163;-74
2022/04/04 13:18:01;;;;;;;1.98;1.25;;;;;;;;;;4938211;29;20035;-74
2022/04/04 13:20:26;;;;;;;2.30;1.73;;;;;;;;;;4938306;29;20114;-74
2022/04/04 13:22:52;;;;;;;1.00;0.90;;;;;;;;;;4955428;29;20098;-75
2022/04/04 13:25:17;;;;;;;1.23;1.13;;;;;;;;;;4954764;29;20530;-74
2022/04/04 13:27:43;;;;;;;1.83;1.60;;;;;;;;;;4955508;29;20028;-74
2022/04/04 13:30:10;;;;;;;1.10;0.80;;;;;;;;;;4955357;29;20111;-74
2022/04/04 13:32:37;;;;;;;1.33;1.23;;;;;;;;;;4955137;29;20024;-74
2022/04/04 13:35:03;;;;;;;2.15;1.77;;;;;;;;;;4954688;28;20019;-73
2022/04/04 13:37:29;;;;;;;0.95;0.80;;;;;;;;;;4954878;29;20551;-74
2022/04/04 13:39:54;;;;;;;1.02;1.02;;;;;;;;;;4955082;29;20423;-74
2022/04/04 13:42:21;;;;;;;0.80;0.80;;;;;;;;;;4955237;29;20023;-73
2022/04/04 13:44:46;;;;;;;3.88;2.10;;;;;;;;;;4954730;29;20020;-74
2022/04/04 13:47:12;;;;;;;5.13;3.67;;;;;;;;;;4955143;29;20040;-74
2022/04/04 13:49:37;;;;;;;1.33;1.10;;;;;;;;;;4955157;29;20051;-73
2022/04/04 13:52:05;;;;;;;2.58;1.38;;;;;;;;;;4938126;29;20550;-74
2022/04/04 13:54:31;;;;;;;2.30;1.73;;;;;;;;;;4955094;29;20023;-73
2022/04/04 13:56:56;;;;;;;2.78;2.58;;;;;;;;;;4954704;29;20050;-74
2022/04/04 13:59:21;;;;;;;3.40;2.65;;;;;;;;;;4954871;29;20399;-74
2022/04/04 14:01:47;;;;;;;2.67;2.45;;;;;;;;;;4954871;29;20434;-74
2022/04/04 14:04:12;;;;;;;3.17;2.63;;;;;;;;;;4937908;29;20471;-74
2022/04/04 14:06:39;;;;;;;0.77;0.77;;;;;;;;;;4955067;29;20484;-74
2022/04/04 14:09:05;;;;;;;2.72;2.55;;;;;;;;;;4937564;29;20085;-74
2022/04/04 14:11:31;;;;;;;1.90;1.80;;;;;;;;;;4954854;29;20027;-74
2022/04/04 14:13:56;;;;;;;2.72;2.55;;;;;;;;;;4954971;29;20094;-74
2022/04/04 14:16:22;;;;;;;1.88;1.75;;;;;;;;;;4954500;29;20043;-74
2022/04/04 14:18:48;;;;;;;3.08;2.75;;;;;;;;;;4954886;29;20019;-74
2022/04/04 14:21:14;;;;;;;4.78;3.08;;;;;;;;;;4937835;29;20059;-74
2022/04/04 14:23:41;;;;;;;2.50;1.92;;;;;;;;;;4954511;29;20018;-74
2022/04/04 14:26:07;;;;;;;3.83;3.50;;;;;;;;;;4954665;29;20050;-74
2022/04/04 14:28:33;;;;;;;3.17;2.83;;;;;;;;;;4954898;29;20019;-74
2022/04/04 14:31:00;;;;;;;3.60;3.22;;;;;;;;;;4954826;29;20497;-74
2022/04/04 14:33:28;;;;;;;5.40;4.60;;;;;;;;;;4954369;29;20019;-74
2022/04/04 14:35:57;;;;;;;5.50;3.78;;;;;;;;;;4954529;29;20019;-74
2022/04/04 14:38:23;;;;;;;4.50;2.80;;;;;;;;;;4954259;29;20037;-74
2022/04/04 14:40:49;;;;;;;4.13;2.92;;;;;;;;;;4954423;29;20027;-74
2022/04/04 14:43:14;;;;;;;3.72;3.03;;;;;;;;;;4954473;29;20463;-74
2022/04/04 14:45:40;;;;;;;7.53;5.22;;;;;;;;;;4954841;29;20035;-74
2022/04/04 14:48:06;;;;;;;2.78;2.42;;;;;;;;;;4940939;29;20086;-74
2022/04/04 14:50:33;;;;;;;5.47;3.67;;;;;;;;;;4958461;29;20027;-74
2022/04/04 14:52:59;;;;;;;5.68;4.28;;;;;;;;;;4958535;29;20022;-74
2022/04/04 14:55:24;;;;;;;6.28;3.45;;;;;;;;;;4958331;29;20039;-73
2022/04/04 14:57:50;;;;;;;3.88;3.47;;;;;;;;;;4958060;29;20027;-73
2022/04/04 15:00:15;;;;;;;5.30;4.38;;;;;;;;;;4958624;29;20114;-72
2022/04/04 15:02:41;;;;;;;5.63;3.83;;;;;;;;;;4958191;29;20048;-73
2022/04/04 15:05:07;;;;;;;3.53;2.72;;;;;;;;;;4958445;29;20031;-73
2022/04/04 15:07:34;;;;;;;2.05;1.85;;;;;;;;;;4958268;29;20024;-73
2022/04/04 15:10:00;;;;;;;3.60;3.30;;;;;;;;;;4940945;29;20773;-74